Time;durP1;ratioP1;P1;durP2;ratioP2;P2;SDS_P1;SDS_P2;PMS_P1;PMS_P2;Temp;Humidity;BMP_temperature;BMP_pressure;BME280_temperature;BME280_humidity;BME280_pressure;Samples;Min_cycle;Max_cycle;Signal;HPM_P1;HPM_P2
2022/08/05 00:00:31;;;;;;;3.60;2.20;;;22.10;99.90;;;;;;5057742;28;20460;-81
2022/08/05 00:02:58;;;;;;;5.33;2.30;;;22.10;99.90;;;;;;5058677;28;20452;-80
2022/08/05 00:05:25;;;;;;;4.70;2.30;;;22.10;99.90;;;;;;5058452;28;20498;-80
2022/08/05 00:07:52;;;;;;;4.00;2.57;;;22.10;99.90;;;;;;5057949;28;20578;-80
2022/08/05 00:10:21;;;;;;;5.27;2.07;;;22.00;99.90;;;;;;5057302;28;20539;-81
2022/08/05 00:12:48;;;;;;;4.00;2.40;;;22.10;99.90;;;;;;5056609;28;20497;-80
2022/08/05 00:15:24;;;;;;;3.00;1.90;;;22.10;99.90;;;;;;5048817;28;20463;-80
2022/08/05 00:17:52;;;;;;;3.90;2.67;;;22.10;99.90;;;;;;5060006;28;21075;-79
2022/08/05 00:20:19;;;;;;;4.07;2.13;;;21.90;99.90;;;;;;5064828;28;20534;-80
2022/08/05 00:22:46;;;;;;;2.77;1.70;;;21.90;99.90;;;;;;5056628;28;20440;-80
2022/08/05 00:25:13;;;;;;;3.23;1.93;;;21.90;99.90;;;;;;5057236;28;20861;-80
2022/08/05 00:27:40;;;;;;;3.87;2.43;;;21.90;99.90;;;;;;5057434;28;20515;-80
2022/08/05 00:30:08;;;;;;;4.03;2.20;;;21.90;99.90;;;;;;5057424;28;20933;-81
2022/08/05 00:32:35;;;;;;;3.63;2.27;;;21.90;99.90;;;;;;5059033;28;20494;-79
2022/08/05 00:35:04;;;;;;;4.87;1.70;;;21.90;99.90;;;;;;5057566;28;20446;-79
2022/08/05 00:37:30;;;;;;;4.83;2.40;;;21.80;99.90;;;;;;5057760;28;20468;-80
2022/08/05 00:39:57;;;;;;;3.23;2.10;;;21.80;99.90;;;;;;5051080;28;20543;-80
2022/08/05 00:42:31;;;;;;;2.90;2.00;;;21.70;99.90;;;;;;5055708;28;20487;-80
2022/08/05 00:44:58;;;;;;;4.83;2.07;;;21.70;99.90;;;;;;5055186;28;20563;-80
2022/08/05 00:47:25;;;;;;;2.90;2.13;;;21.70;99.90;;;;;;5055450;28;20571;-80
2022/08/05 00:49:52;;;;;;;3.50;1.90;;;21.70;99.90;;;;;;5055843;28;20454;-79
2022/08/05 00:52:21;;;;;;;4.20;2.23;;;21.60;99.90;;;;;;5056002;28;20463;-80
2022/08/05 00:54:48;;;;;;;3.40;2.43;;;21.60;99.90;;;;;;5055241;28;20484;-79
2022/08/05 00:57:15;;;;;;;3.87;2.30;;;21.50;99.90;;;;;;5056392;28;20479;-80
2022/08/05 00:59:42;;;;;;;4.77;2.30;;;21.50;99.90;;;;;;5055990;28;20463;-81
2022/08/05 01:02:09;;;;;;;5.67;2.60;;;21.50;99.90;;;;;;5054822;28;20563;-80
2022/08/05 01:04:36;;;;;;;4.70;3.10;;;21.50;99.90;;;;;;5055627;28;20552;-80
2022/08/05 01:07:02;;;;;;;5.20;2.60;;;21.50;99.90;;;;;;5057031;28;20567;-80
2022/08/05 01:09:31;;;;;;;8.13;3.00;;;21.50;99.90;;;;;;5055661;28;20543;-81
2022/08/05 01:12:02;;;;;;;3.93;2.60;;;21.50;99.90;;;;;;5056203;28;20492;-80
2022/08/05 01:14:36;;;;;;;5.93;2.47;;;21.50;99.90;;;;;;5055120;28;20510;-79
2022/08/05 01:17:06;;;;;;;6.47;2.57;;;21.40;99.90;;;;;;5056922;28;20550;-79
2022/08/05 01:19:36;;;;;;;3.67;2.20;;;21.40;99.90;;;;;;5056118;28;20514;-79
2022/08/05 01:22:25;;;;;;;3.43;2.20;;;21.40;99.90;;;;;;5056803;28;20455;-81
2022/08/05 01:25:05;;;;;;;2.97;1.73;;;21.40;99.90;;;;;;5056078;28;20531;-80
2022/08/05 01:27:52;;;;;;;3.30;2.30;;;21.40;99.90;;;;;;5056520;28;20587;-79
2022/08/05 01:30:19;;;;;;;4.33;2.20;;;21.40;99.90;;;;;;5056677;28;20559;-80
2022/08/05 01:32:49;;;;;;;6.00;2.80;;;21.30;99.90;;;;;;5055922;28;20484;-79
2022/08/05 01:35:18;;;;;;;4.17;2.37;;;21.30;99.90;;;;;;5056700;28;20510;-79
2022/08/05 01:37:49;;;;;;;4.33;1.97;;;21.30;99.90;;;;;;5057369;28;20522;-80
2022/08/05 01:40:18;;;;;;;4.43;2.70;;;21.40;99.90;;;;;;5056690;28;21206;-79
2022/08/05 01:42:48;;;;;;;2.70;2.10;;;21.50;99.90;;;;;;5055605;28;20550;-79
2022/08/05 01:45:16;;;;;;;4.30;2.90;;;21.50;99.90;;;;;;5055730;28;20956;-80
2022/08/05 01:47:44;;;;;;;5.30;2.60;;;21.50;99.90;;;;;;5054969;28;20498;-80
2022/08/05 01:50:15;;;;;;;5.27;2.33;;;21.50;99.90;;;;;;5055564;28;20975;-79
2022/08/05 01:52:44;;;;;;;4.90;3.10;;;21.50;99.90;;;;;;5055804;28;20472;-80
2022/08/05 01:55:14;;;;;;;5.60;2.13;;;21.60;99.90;;;;;;5054713;28;20546;-80
2022/08/05 01:57:44;;;;;;;4.90;2.23;;;21.60;99.90;;;;;;5055283;28;20554;-80
2022/08/05 02:00:13;;;;;;;5.10;2.13;;;21.60;99.90;;;;;;5055922;28;20535;-80
2022/08/05 02:02:48;;;;;;;3.10;2.00;;;21.60;99.90;;;;;;5055615;28;20476;-80
2022/08/05 02:05:17;;;;;;;4.13;2.60;;;21.60;99.90;;;;;;5054911;28;20526;-79
2022/08/05 02:07:44;;;;;;;5.50;1.90;;;21.60;99.90;;;;;;5055520;28;20566;-80
2022/08/05 02:10:11;;;;;;;3.17;2.23;;;21.60;99.90;;;;;;5056404;28;20539;-79
2022/08/05 02:12:46;;;;;;;4.57;2.30;;;21.60;99.90;;;;;;5054822;28;20458;-79
2022/08/05 02:15:22;;;;;;;3.53;2.10;;;21.50;99.90;;;;;;5055619;28;20531;-79
2022/08/05 02:17:52;;;;;;;4.90;2.57;;;21.50;99.90;;;;;;5053169;28;20475;-80
2022/08/05 02:20:22;;;;;;;4.37;2.60;;;21.40;99.90;;;;;;5055622;28;20847;-80
2022/08/05 02:22:56;;;;;;;4.30;2.30;;;21.40;99.90;;;;;;5055906;28;20523;-79
2022/08/05 02:25:27;;;;;;;7.10;2.30;;;21.40;99.90;;;;;;5056327;28;20901;-79
2022/08/05 02:27:56;;;;;;;4.10;2.00;;;21.40;99.90;;;;;;5059948;28;20510;-79
2022/08/05 02:30:26;;;;;;;3.57;2.07;;;21.40;99.90;;;;;;5063348;28;20479;-79
2022/08/05 02:32:55;;;;;;;3.70;2.30;;;21.40;99.90;;;;;;5063431;28;20480;-78
2022/08/05 02:35:25;;;;;;;5.33;3.03;;;21.40;99.90;;;;;;5070124;28;20519;-79
2022/08/05 02:37:55;;;;;;;4.00;2.57;;;21.40;99.90;;;;;;5059577;28;20482;-79
2022/08/05 02:40:24;;;;;;;3.87;2.30;;;21.40;99.90;;;;;;5055729;28;20494;-80
2022/08/05 02:42:53;;;;;;;4.30;2.90;;;21.30;99.90;;;;;;5054626;28;20458;-79
2022/08/05 02:45:20;;;;;;;4.73;2.90;;;21.30;99.90;;;;;;5055044;28;20456;-79
2022/08/05 02:47:51;;;;;;;8.40;2.73;;;21.20;99.90;;;;;;5047370;28;21088;-80
2022/08/05 02:50:19;;;;;;;3.40;2.40;;;21.10;99.90;;;;;;5055571;28;20833;-80
2022/08/05 02:52:47;;;;;;;7.83;3.10;;;21.10;99.90;;;;;;5054084;28;20509;-80
2022/08/05 02:55:14;;;;;;;4.80;2.60;;;21.00;99.90;;;;;;5054747;28;20490;-80
2022/08/05 02:57:42;;;;;;;4.07;3.37;;;21.10;99.90;;;;;;5054913;28;20559;-78
2022/08/05 03:00:11;;;;;;;5.27;3.17;;;21.00;99.90;;;;;;5055341;28;20967;-79
2022/08/05 03:02:41;;;;;;;5.43;3.50;;;20.80;99.90;;;;;;5054934;28;20547;-80
2022/08/05 03:05:12;;;;;;;4.90;3.00;;;20.70;99.90;;;;;;5054999;28;20519;-80
2022/08/05 03:07:40;;;;;;;4.20;3.13;;;20.70;99.90;;;;;;5047200;28;20555;-80
2022/08/05 03:10:09;;;;;;;4.67;3.20;;;20.70;99.90;;;;;;5066553;28;20472;-80
2022/08/05 03:12:38;;;;;;;5.13;3.33;;;20.70;99.90;;;;;;5056556;28;20475;-81
2022/08/05 03:15:06;;;;;;;3.90;3.00;;;20.70;99.90;;;;;;5055042;28;20491;-80
2022/08/05 03:17:33;;;;;;;5.73;4.03;;;20.60;99.90;;;;;;5053138;28;20472;-81
2022/08/05 03:20:00;;;;;;;6.37;3.37;;;20.60;99.90;;;;;;5055909;28;20456;-82
2022/08/05 03:22:28;;;;;;;5.03;3.70;;;20.60;99.90;;;;;;5055385;28;20556;-80
2022/08/05 03:24:56;;;;;;;6.33;4.00;;;20.60;99.90;;;;;;5058418;28;20487;-80
2022/08/05 03:27:24;;;;;;;4.23;3.83;;;20.60;99.90;;;;;;5060544;28;20508;-80
2022/08/05 03:29:54;;;;;;;11.57;3.83;;;20.40;99.90;;;;;;5074167;28;20471;-80
2022/08/05 03:32:22;;;;;;;6.33;4.30;;;20.40;99.90;;;;;;5072780;28;20444;-81
2022/08/05 03:34:49;;;;;;;6.60;3.97;;;20.40;99.90;;;;;;5073446;28;20460;-80
2022/08/05 03:37:16;;;;;;;4.90;3.70;;;20.50;99.90;;;;;;5073979;28;20479;-81
2022/08/05 03:39:55;;;;;;;5.23;3.33;;;20.50;99.90;;;;;;5061628;28;20480;-81
2022/08/05 03:42:22;;;;;;;6.97;3.83;;;20.50;99.90;;;;;;5055706;28;20900;-81
2022/08/05 03:44:49;;;;;;;7.10;1.23;;;20.50;99.90;;;;;;5036402;28;20560;-80
2022/08/05 03:47:16;;;;;;;4.43;2.93;;;20.70;99.90;;;;;;5055319;28;20663;-80
2022/08/05 03:49:43;;;;;;;7.80;3.03;;;20.80;99.90;;;;;;5055861;28;20448;-79
2022/08/05 03:52:12;;;;;;;6.03;3.30;;;21.00;99.90;;;;;;5057037;28;20539;-79
2022/08/05 03:54:47;;;;;;;7.33;3.87;;;21.00;99.90;;;;;;5057827;28;20596;-81
2022/08/05 03:57:18;;;;;;;6.23;4.40;;;21.00;99.90;;;;;;5056925;28;21106;-80
2022/08/05 03:59:57;;;;;;;8.27;4.10;;;21.00;99.90;;;;;;5056475;28;20531;-81
2022/08/05 04:02:26;;;;;;;7.23;4.87;;;20.80;99.90;;;;;;5055808;28;20539;-80
2022/08/05 04:04:53;;;;;;;7.33;4.63;;;20.60;99.90;;;;;;5054462;28;20543;-79
2022/08/05 04:07:21;;;;;;;8.30;4.77;;;20.40;99.90;;;;;;5055741;28;20503;-81
2022/08/05 04:09:48;;;;;;;9.03;4.10;;;20.20;99.90;;;;;;5055109;28;20454;-80
2022/08/05 04:12:17;;;;;;;5.53;5.03;;;20.30;99.90;;;;;;5055491;28;20530;-80
2022/08/05 04:14:44;;;;;;;7.30;5.37;;;20.10;99.90;;;;;;5054703;28;20543;-79
2022/08/05 04:17:11;;;;;;;6.40;4.67;;;19.80;99.90;;;;;;5056383;28;21055;-81
2022/08/05 04:19:42;;;;;;;6.53;4.93;;;20.00;99.90;;;;;;5055485;28;20454;-79
2022/08/05 04:22:09;;;;;;;9.73;5.03;;;20.00;99.90;;;;;;5056673;28;20460;-81
2022/08/05 04:24:36;;;;;;;8.43;5.50;;;20.10;99.90;;;;;;5056214;28;20444;-80
2022/08/05 04:27:03;;;;;;;8.03;5.37;;;19.90;99.90;;;;;;5056775;28;21111;-80
2022/08/05 04:29:31;;;;;;;7.93;5.13;;;19.90;99.90;;;;;;5057496;28;20574;-81
2022/08/05 04:31:58;;;;;;;8.23;4.87;;;19.90;99.90;;;;;;5059047;28;20475;-82
2022/08/05 04:34:25;;;;;;;8.30;5.60;;;20.00;99.90;;;;;;5059193;28;20462;-81
2022/08/05 04:36:52;;;;;;;8.83;5.07;;;20.10;99.90;;;;;;5073754;28;20483;-81
2022/08/05 04:39:19;;;;;;;6.57;5.73;;;20.10;99.90;;;;;;5056002;28;20998;-81
2022/08/05 04:41:46;;;;;;;8.80;5.53;;;20.00;99.90;;;;;;5055446;28;20523;-81
2022/08/05 04:44:13;;;;;;;7.00;5.90;;;20.10;99.90;;;;;;5055214;28;20492;-81
2022/08/05 04:46:41;;;;;;;9.00;6.03;;;20.20;99.90;;;;;;5055453;28;20479;-81
2022/08/05 04:49:08;;;;;;;6.20;5.10;;;20.00;99.90;;;;;;5060493;28;20522;-82
2022/08/05 04:51:35;;;;;;;9.63;5.87;;;20.00;99.90;;;;;;5057768;28;20473;-80
2022/08/05 04:54:02;;;;;;;8.60;7.47;;;20.00;99.90;;;;;;5043286;28;20588;-79
2022/08/05 04:56:29;;;;;;;9.40;7.53;;;19.90;99.90;;;;;;5050886;28;20552;-80
2022/08/05 04:58:56;;;;;;;9.27;6.70;;;19.90;99.90;;;;;;5052736;28;20448;-81
2022/08/05 05:01:23;;;;;;;13.10;10.57;;;19.90;99.90;;;;;;5053058;28;20954;-80
2022/08/05 05:03:51;;;;;;;10.20;7.27;;;19.80;99.90;;;;;;5051472;28;20672;-80
2022/08/05 05:06:18;;;;;;;11.37;7.00;;;19.90;99.90;;;;;;5047909;28;20608;-80
2022/08/05 05:08:46;;;;;;;11.23;7.83;;;19.90;99.90;;;;;;5045702;28;20895;-81
2022/08/05 05:11:13;;;;;;;10.53;8.30;;;19.90;99.90;;;;;;5050218;28;20460;-80
2022/08/05 05:13:39;;;;;;;11.10;7.63;;;19.80;99.90;;;;;;5051406;28;20460;-82
2022/08/05 05:16:07;;;;;;;9.47;8.50;;;19.90;99.90;;;;;;5050839;28;20507;-80
2022/08/05 05:18:34;;;;;;;13.03;9.20;;;20.00;99.90;;;;;;5052293;28;20448;-81
2022/08/05 05:21:02;;;;;;;11.93;9.60;;;19.90;99.90;;;;;;5049284;28;20547;-81
2022/08/05 05:23:29;;;;;;;12.40;8.87;;;19.80;99.90;;;;;;5048920;28;20452;-81
2022/08/05 05:25:56;;;;;;;11.77;9.93;;;19.90;99.90;;;;;;5052473;28;20452;-81
2022/08/05 05:28:23;;;;;;;11.70;9.10;;;19.80;99.90;;;;;;5054647;28;20566;-80
2022/08/05 05:30:50;;;;;;;10.60;9.23;;;19.90;99.90;;;;;;5052574;28;20516;-81
2022/08/05 05:33:17;;;;;;;17.27;14.13;;;19.90;99.90;;;;;;5051116;28;20844;-81
2022/08/05 05:35:45;;;;;;;9.90;8.37;;;19.80;99.90;;;;;;5050966;28;20484;-82
2022/08/05 05:38:13;;;;;;;14.17;9.03;;;19.90;99.90;;;;;;5052244;28;20456;-80
2022/08/05 05:40:41;;;;;;;12.50;10.90;;;20.00;99.90;;;;;;5053365;28;20507;-82
2022/08/05 05:43:08;;;;;;;14.90;11.40;;;20.00;99.90;;;;;;5051956;28;20494;-80
2022/08/05 05:45:35;;;;;;;16.13;12.40;;;19.90;99.90;;;;;;5054002;28;20471;-80
2022/08/05 05:48:04;;;;;;;14.03;12.53;;;19.80;99.90;;;;;;5034521;28;20941;-82
2022/08/05 05:50:31;;;;;;;13.63;10.80;;;19.90;99.90;;;;;;5036015;28;20457;-81
2022/08/05 05:52:58;;;;;;;11.37;9.60;;;20.00;99.90;;;;;;5031833;28;20457;-79
2022/08/05 05:55:27;;;;;;;14.57;12.30;;;20.00;99.90;;;;;;5040043;28;20495;-80
2022/08/05 05:57:53;;;;;;;16.77;12.27;;;19.90;99.90;;;;;;5034584;28;20554;-82
2022/08/05 06:00:21;;;;;;;15.70;11.13;;;19.90;99.90;;;;;;5031661;28;20524;-78
2022/08/05 06:02:49;;;;;;;15.07;12.03;;;19.90;99.90;;;;;;5034562;28;20526;-80
2022/08/05 06:05:19;;;;;;;17.00;14.50;;;19.90;99.90;;;;;;5028427;28;20540;-79
2022/08/05 06:07:48;;;;;;;16.53;13.30;;;19.80;99.90;;;;;;5033304;28;20473;-79
2022/08/05 06:10:15;;;;;;;23.00;16.30;;;19.90;99.90;;;;;;5029931;28;20492;-80
2022/08/05 06:12:44;;;;;;;15.60;12.00;;;19.80;99.90;;;;;;5037892;28;20550;-81
2022/08/05 06:15:11;;;;;;;19.00;13.10;;;19.90;99.90;;;;;;5032245;28;20540;-80
2022/08/05 06:17:38;;;;;;;18.90;15.40;;;19.90;99.90;;;;;;5032281;28;20558;-81
2022/08/05 06:20:06;;;;;;;17.97;14.73;;;19.90;99.90;;;;;;5028577;28;20532;-79
2022/08/05 06:22:36;;;;;;;17.17;13.00;;;19.90;99.90;;;;;;5024846;28;20450;-81
2022/08/05 06:25:06;;;;;;;17.40;13.27;;;19.90;99.90;;;;;;5025849;28;20882;-80
2022/08/05 06:27:33;;;;;;;17.70;14.57;;;20.00;99.90;;;;;;5033406;28;20503;-81
2022/08/05 06:30:02;;;;;;;18.87;14.13;;;19.90;99.90;;;;;;5031133;28;20525;-80
2022/08/05 06:32:31;;;;;;;22.90;14.67;;;19.80;99.90;;;;;;5030724;28;20958;-81
2022/08/05 06:34:58;;;;;;;15.20;12.40;;;19.80;99.90;;;;;;5035818;28;20473;-80
2022/08/05 06:37:26;;;;;;;17.20;13.70;;;19.70;99.90;;;;;;5043294;28;20512;-81
2022/08/05 06:39:53;;;;;;;15.40;12.30;;;19.70;99.90;;;;;;5034336;28;20445;-80
2022/08/05 06:42:19;;;;;;;13.07;11.53;;;19.80;99.90;;;;;;5031872;28;20481;-81
2022/08/05 06:44:46;;;;;;;19.13;11.57;;;19.70;99.90;;;;;;5035687;28;20544;-82
2022/08/05 06:47:15;;;;;;;16.23;11.23;;;19.80;99.90;;;;;;5046886;28;20487;-82
2022/08/05 06:49:41;;;;;;;31.83;16.73;;;19.80;99.90;;;;;;5054467;28;20479;-83
2022/08/05 06:52:08;;;;;;;18.87;13.67;;;19.60;99.90;;;;;;5057452;28;20971;-80
2022/08/05 06:54:38;;;;;;;16.40;14.80;;;19.60;99.90;;;;;;5056978;28;20465;-81
2022/08/05 06:57:07;;;;;;;19.00;15.87;;;19.40;99.90;;;;;;5053477;28;20467;-80
2022/08/05 06:59:34;;;;;;;19.73;15.60;;;19.40;99.90;;;;;;5064076;28;20455;-81
2022/08/05 07:02:01;;;;;;;15.37;13.87;;;19.30;99.90;;;;;;5062069;28;20460;-81
2022/08/05 07:04:29;;;;;;;16.03;12.80;;;19.30;99.90;;;;;;5053721;28;20833;-79
2022/08/05 07:06:56;;;;;;;17.60;12.80;;;19.20;99.90;;;;;;5054788;28;20562;-80
2022/08/05 07:09:23;;;;;;;12.63;11.33;;;19.20;99.90;;;;;;5053317;28;20515;-78
2022/08/05 07:11:50;;;;;;;12.77;11.37;;;19.20;99.90;;;;;;5054748;28;20996;-79
2022/08/05 07:17:02;;;;;;;14.63;12.07;;;19.10;99.90;;;;;;5058785;28;20487;-80
2022/08/05 07:19:30;;;;;;;14.70;12.37;;;19.10;99.90;;;;;;5054981;28;20458;-79
2022/08/05 07:21:57;;;;;;;12.33;11.10;;;19.10;99.90;;;;;;5059294;28;20492;-80
2022/08/05 07:24:24;;;;;;;19.63;14.37;;;19.20;99.90;;;;;;5059005;28;20480;-80
2022/08/05 07:26:51;;;;;;;12.93;10.23;;;19.10;99.90;;;;;;5062328;28;20481;-79
2022/08/05 07:29:18;;;;;;;13.60;10.57;;;19.10;99.90;;;;;;5055002;28;20568;-81
2022/08/05 07:31:45;;;;;;;12.47;10.97;;;19.00;99.90;;;;;;5055707;28;20994;-80
2022/08/05 07:34:12;;;;;;;12.23;10.70;;;19.00;99.90;;;;;;5048677;28;20467;-78
2022/08/05 07:36:41;;;;;;;9.73;8.83;;;18.90;99.90;;;;;;5054507;28;20996;-80
2022/08/05 07:39:13;;;;;;;10.30;9.27;;;19.00;99.90;;;;;;5055566;28;20966;-78
2022/08/05 07:41:43;;;;;;;13.33;11.93;;;18.90;99.90;;;;;;5052348;28;20547;-78
2022/08/05 07:44:10;;;;;;;12.73;9.00;;;18.80;99.90;;;;;;5049328;28;20554;-79
2022/08/05 07:46:37;;;;;;;15.73;8.93;;;18.80;99.90;;;;;;5052336;28;20487;-79
2022/08/05 07:49:04;;;;;;;12.53;11.33;;;18.80;99.90;;;;;;5051536;28;20578;-79
2022/08/05 07:51:35;;;;;;;8.57;7.30;;;18.80;99.90;;;;;;5053475;28;20470;-81
2022/08/05 07:54:06;;;;;;;9.83;8.83;;;19.00;99.90;;;;;;5054356;28;20545;-81
2022/08/05 07:56:33;;;;;;;12.73;8.60;;;19.00;99.90;;;;;;5052932;28;20481;-84
2022/08/05 07:59:00;;;;;;;8.73;7.03;;;19.00;99.90;;;;;;5053577;28;20440;-79
2022/08/05 08:01:29;;;;;;;7.90;5.80;;;19.00;99.90;;;;;;5051941;28;21015;-81
2022/08/05 08:03:56;;;;;;;11.73;7.20;;;19.00;99.90;;;;;;5055839;28;20480;-80
2022/08/05 08:06:22;;;;;;;9.40;6.77;;;19.00;99.90;;;;;;5052619;28;20551;-82
2022/08/05 08:08:49;;;;;;;11.57;6.80;;;19.00;99.90;;;;;;5054504;28;20455;-79
2022/08/05 08:11:18;;;;;;;11.50;7.47;;;18.90;99.90;;;;;;5052119;28;20823;-82
2022/08/05 08:13:45;;;;;;;10.00;9.00;;;18.90;99.90;;;;;;5052633;28;20558;-80
2022/08/05 08:16:12;;;;;;;9.33;6.60;;;18.70;99.90;;;;;;5054393;28;20503;-80
2022/08/05 08:18:42;;;;;;;6.70;6.10;;;18.60;99.90;;;;;;5055018;28;20529;-79
2022/08/05 08:21:08;;;;;;;7.53;5.63;;;18.60;99.90;;;;;;5056445;28;20680;-79
2022/08/05 08:23:35;;;;;;;6.40;3.53;;;19.30;99.90;;;;;;5055440;28;20486;-79
2022/08/05 08:26:02;;;;;;;6.77;3.10;;;19.70;99.90;;;;;;5050443;28;20543;-79
2022/08/05 08:28:30;;;;;;;7.83;4.03;;;20.00;99.90;;;;;;5052920;28;20853;-79
2022/08/05 08:30:57;;;;;;;5.40;3.60;;;20.10;99.90;;;;;;5055410;28;20523;-78
2022/08/05 08:33:24;;;;;;;6.97;4.50;;;20.20;99.90;;;;;;5054152;28;20632;-79
2022/08/05 08:35:51;;;;;;;4.40;3.30;;;20.00;99.90;;;;;;5059480;28;20456;-79
2022/08/05 08:38:18;;;;;;;4.97;3.20;;;20.20;99.90;;;;;;5060893;28;20452;-79
2022/08/05 08:40:47;;;;;;;6.17;3.30;;;20.10;99.90;;;;;;5054378;28;20523;-79
2022/08/05 08:43:14;;;;;;;4.90;4.30;;;20.30;99.90;;;;;;5051500;28;20448;-79
2022/08/05 08:45:44;;;;;;;5.67;2.90;;;20.40;99.90;;;;;;5052788;28;20511;-79
2022/08/05 08:48:12;;;;;;;7.27;2.87;;;20.50;99.90;;;;;;5052704;28;20567;-78
2022/08/05 08:50:41;;;;;;;5.27;2.97;;;20.70;99.90;;;;;;5054394;28;20530;-79
2022/08/05 08:53:11;;;;;;;4.67;3.17;;;20.70;99.90;;;;;;5056424;28;20455;-78
2022/08/05 08:55:39;;;;;;;6.50;3.00;;;20.80;99.90;;;;;;5051487;28;20516;-77
2022/08/05 08:58:06;;;;;;;4.53;2.80;;;20.80;99.90;;;;;;5060255;28;20563;-78
2022/08/05 09:00:33;;;;;;;5.10;3.10;;;20.90;99.90;;;;;;5056108;28;20535;-78
2022/08/05 09:03:05;;;;;;;7.00;2.93;;;21.00;99.90;;;;;;5058802;28;20861;-79
2022/08/05 09:05:32;;;;;;;7.90;3.10;;;20.80;99.90;;;;;;5062429;28;20454;-79
2022/08/05 09:07:59;;;;;;;6.73;2.87;;;20.90;99.90;;;;;;5059490;28;21002;-77
2022/08/05 09:10:27;;;;;;;6.93;3.70;;;20.90;99.90;;;;;;5052126;28;20523;-79
2022/08/05 09:12:54;;;;;;;9.13;2.60;;;20.90;99.90;;;;;;5056953;28;20499;-78
2022/08/05 09:15:21;;;;;;;4.80;3.07;;;21.10;99.90;;;;;;5063493;28;20458;-79
2022/08/05 09:17:48;;;;;;;2.90;2.40;;;21.10;99.90;;;;;;5063984;28;20463;-78
2022/08/05 09:20:16;;;;;;;5.83;3.10;;;21.20;99.90;;;;;;5069560;28;20472;-78
2022/08/05 09:23:16;;;;;;;5.00;2.53;;;21.10;99.90;;;;;;5071012;28;20455;-78
2022/08/05 09:25:46;;;;;;;5.93;3.23;;;21.20;99.90;;;;;;4966787;29;20584;-79
2022/08/05 09:28:16;;;;;;;4.50;2.93;;;21.20;99.90;;;;;;5046471;28;20456;-78
2022/08/05 09:30:44;;;;;;;4.70;2.83;;;21.20;99.90;;;;;;5065204;28;20472;-78
2022/08/05 09:33:11;;;;;;;4.13;2.60;;;21.30;99.90;;;;;;5062239;28;20524;-78
2022/08/05 09:36:02;;;;;;;4.17;2.30;;;21.20;99.90;;;;;;5067014;28;20487;-79
2022/08/05 09:38:29;;;;;;;2.97;2.00;;;21.30;99.90;;;;;;5066761;28;20448;-78
2022/08/05 09:41:04;;;;;;;6.80;3.07;;;21.40;99.90;;;;;;5062798;28;20479;-78
2022/08/05 09:43:32;;;;;;;5.87;2.97;;;21.30;99.90;;;;;;5062006;28;20440;-78
2022/08/05 09:45:59;;;;;;;5.43;4.23;;;21.40;99.90;;;;;;5064994;28;20583;-79
2022/08/05 09:48:28;;;;;;;3.70;2.67;;;21.30;99.90;;;;;;5054410;28;21166;-78
2022/08/05 09:50:58;;;;;;;6.53;3.20;;;21.30;99.90;;;;;;5045714;28;20499;-78
2022/08/05 09:53:26;;;;;;;9.60;3.10;;;21.30;99.90;;;;;;5035732;28;20465;-77
2022/08/05 09:55:55;;;;;;;5.33;2.33;;;21.20;99.90;;;;;;5032281;28;20457;-78
2022/08/05 09:58:22;;;;;;;4.47;2.30;;;21.10;99.90;;;;;;5035707;28;20448;-79
2022/08/05 10:00:54;;;;;;;3.90;2.13;;;21.20;99.90;;;;;;5036360;28;20487;-78
2022/08/05 10:03:22;;;;;;;5.83;2.20;;;21.20;99.90;;;;;;5046914;28;20484;-77
2022/08/05 10:06:02;;;;;;;3.50;2.23;;;21.20;99.90;;;;;;5036840;28;20456;-78
2022/08/05 10:08:29;;;;;;;5.07;2.53;;;21.20;99.90;;;;;;5045583;28;20891;-78
2022/08/05 10:10:57;;;;;;;3.90;2.00;;;21.30;99.90;;;;;;5043284;28;20480;-78
2022/08/05 10:13:29;;;;;;;5.30;2.17;;;21.30;99.90;;;;;;5051369;28;20574;-78
2022/08/05 10:15:57;;;;;;;4.00;2.83;;;21.30;99.90;;;;;;5025121;28;20445;-79
2022/08/05 10:18:26;;;;;;;6.63;2.50;;;21.30;99.90;;;;;;5034300;28;20836;-78
2022/08/05 10:20:55;;;;;;;5.40;2.73;;;21.20;99.90;;;;;;5034772;28;20457;-78
2022/08/05 10:23:25;;;;;;;5.40;2.53;;;21.30;99.90;;;;;;5031281;28;20456;-78
2022/08/05 10:25:54;;;;;;;3.83;2.67;;;21.30;99.90;;;;;;5032698;28;20528;-79
2022/08/05 10:28:20;;;;;;;4.13;2.63;;;21.40;99.90;;;;;;5033720;28;20500;-78
2022/08/05 10:30:47;;;;;;;4.30;2.87;;;21.30;99.90;;;;;;5033851;28;20548;-78
2022/08/05 10:33:14;;;;;;;4.53;2.67;;;21.20;99.90;;;;;;5036122;28;20457;-78
2022/08/05 10:35:41;;;;;;;4.70;2.37;;;21.20;99.90;;;;;;5039825;28;21068;-78
2022/08/05 10:38:08;;;;;;;6.37;2.97;;;21.30;99.90;;;;;;5052128;28;20530;-79
2022/08/05 10:40:42;;;;;;;4.10;2.73;;;21.30;99.90;;;;;;5041008;28;20511;-78
2022/08/05 10:43:17;;;;;;;4.47;3.10;;;21.50;99.90;;;;;;5042864;28;20463;-77
2022/08/05 10:45:56;;;;;;;5.70;3.10;;;21.60;99.90;;;;;;5051966;28;20451;-78
2022/08/05 10:48:36;;;;;;;4.80;2.63;;;21.90;99.90;;;;;;5044989;28;20542;-77
2022/08/05 10:51:07;;;;;;;5.27;3.50;;;22.10;99.90;;;;;;5037024;28;20571;-78
2022/08/05 10:53:40;;;;;;;5.90;2.57;;;21.60;99.90;;;;;;5034550;28;20948;-78
2022/08/05 10:56:11;;;;;;;4.20;2.33;;;21.70;99.90;;;;;;5021408;28;20491;-78
2022/08/05 10:58:49;;;;;;;6.40;2.83;;;21.60;99.90;;;;;;5024605;28;20997;-77
2022/08/05 11:01:16;;;;;;;4.60;2.40;;;21.80;99.90;;;;;;5034134;28;20527;-78
2022/08/05 11:04:03;;;;;;;3.53;1.97;;;22.10;99.90;;;;;;5035979;28;20456;-78
2022/08/05 11:06:30;;;;;;;3.70;2.50;;;22.10;99.90;;;;;;5049945;28;20563;-78
2022/08/05 11:09:17;;;;;;;3.83;2.50;;;22.30;99.90;;;;;;5054357;28;20539;-78
2022/08/05 11:11:46;;;;;;;5.13;2.60;;;22.20;99.90;;;;;;5035227;28;20492;-78
2022/08/05 11:14:22;;;;;;;4.10;2.13;;;22.50;99.90;;;;;;5044882;28;20454;-76
2022/08/05 11:17:22;;;;;;;4.50;2.30;;;22.90;99.90;;;;;;5047276;28;20976;-76
2022/08/05 11:19:52;;;;;;;3.30;1.73;;;23.00;99.90;;;;;;5027430;28;20973;-77
2022/08/05 11:22:43;;;;;;;5.23;1.90;;;23.40;99.90;;;;;;5034253;28;20833;-77
2022/08/05 11:25:32;;;;;;;3.67;1.60;;;23.40;99.90;;;;;;5041492;28;20459;-77
2022/08/05 11:28:43;;;;;;;4.30;2.40;;;23.20;99.90;;;;;;5031666;28;20495;-77
2022/08/05 11:31:36;;;;;;;2.80;1.70;;;23.00;99.90;;;;;;5054616;28;20714;-77
2022/08/05 11:34:07;;;;;;;4.23;2.00;;;22.90;99.90;;;;;;4994464;28;20835;-77
2022/08/05 11:36:45;;;;;;;5.33;3.13;;;23.10;99.90;;;;;;5043056;28;20845;-77
2022/08/05 11:39:13;;;;;;;4.63;2.53;;;23.60;99.90;;;;;;5035103;28;21033;-76
2022/08/05 11:41:41;;;;;;;6.03;2.47;;;23.80;99.90;;;;;;5041819;28;20445;-77
2022/08/05 11:44:11;;;;;;;3.93;1.97;;;24.00;99.90;;;;;;5050999;28;21028;-76
2022/08/05 11:46:40;;;;;;;3.03;2.00;;;23.90;99.90;;;;;;5038098;28;20893;-77
2022/08/05 11:49:12;;;;;;;3.80;2.37;;;23.50;99.90;;;;;;5040118;28;20539;-77
2022/08/05 11:51:42;;;;;;;4.40;2.40;;;23.80;99.90;;;;;;5052356;28;20480;-78
2022/08/05 11:54:10;;;;;;;4.40;2.60;;;23.80;99.90;;;;;;5036332;28;20460;-78
2022/08/05 11:56:47;;;;;;;6.30;2.77;;;24.00;99.90;;;;;;5039169;28;20910;-77
2022/08/05 11:59:22;;;;;;;6.80;2.60;;;24.40;99.90;;;;;;5027252;28;20463;-76
2022/08/05 12:01:54;;;;;;;3.90;2.70;;;24.40;99.90;;;;;;5035196;28;20498;-76
2022/08/05 12:04:21;;;;;;;4.20;3.13;;;24.30;99.90;;;;;;5028504;28;20459;-77
2022/08/05 12:06:52;;;;;;;5.63;3.07;;;24.00;99.90;;;;;;5029457;28;20476;-76
2022/08/05 12:09:23;;;;;;;3.83;2.47;;;23.90;99.90;;;;;;5035845;28;20461;-76
2022/08/05 12:11:50;;;;;;;3.50;2.60;;;24.10;99.90;;;;;;5027811;28;20872;-77
2022/08/05 12:14:19;;;;;;;5.00;2.70;;;24.50;99.90;;;;;;5031741;28;20886;-79
2022/08/05 12:16:47;;;;;;;5.33;3.47;;;25.50;99.90;;;;;;5029169;28;20523;-78
2022/08/05 12:19:16;;;;;;;5.53;3.40;;;26.10;99.90;;;;;;5029720;28;20445;-79
2022/08/05 12:21:45;;;;;;;3.87;2.37;;;26.50;99.90;;;;;;5031515;28;20441;-76
2022/08/05 12:24:14;;;;;;;4.93;3.40;;;26.00;99.90;;;;;;5027963;28;20459;-77
2022/08/05 12:26:44;;;;;;;4.37;3.87;;;26.00;99.90;;;;;;5029217;28;20547;-77
2022/08/05 12:29:13;;;;;;;7.00;3.40;;;26.30;99.90;;;;;;5027556;28;20468;-76
2022/08/05 12:31:46;;;;;;;4.87;3.90;;;26.30;99.90;;;;;;5026679;28;20563;-78
2022/08/05 12:34:14;;;;;;;4.90;3.83;;;25.30;99.90;;;;;;5024926;28;20453;-77
2022/08/05 12:36:41;;;;;;;6.03;4.37;;;24.80;99.90;;;;;;5030606;28;20483;-78
2022/08/05 12:39:09;;;;;;;6.77;4.30;;;24.30;99.90;;;;;;5024530;28;20550;-77
2022/08/05 12:41:38;;;;;;;7.43;4.93;;;24.30;99.90;;;;;;5028354;28;20544;-76
2022/08/05 12:44:09;;;;;;;5.40;4.40;;;24.70;99.90;;;;;;5032164;28;20461;-77
2022/08/05 12:46:37;;;;;;;6.40;4.70;;;25.60;99.90;;;;;;5033884;28;20527;-77
2022/08/05 12:49:09;;;;;;;4.50;4.10;;;25.80;99.90;;;;;;5050257;28;20460;-76
2022/08/05 12:51:47;;;;;;;7.10;4.73;;;25.80;99.90;;;;;;5047253;28;20599;-78
2022/08/05 12:54:20;;;;;;;6.47;4.07;;;25.40;99.90;;;;;;5044774;28;20459;-76
2022/08/05 12:56:50;;;;;;;5.30;4.50;;;24.90;99.90;;;;;;5043291;28;20574;-78